• Join FlightAware (Why Join?)
  • Login
  • US Flag 
07:54PM EDT


 

Airport Tracker/Info


-or-


 

Live Flight TrackerFlight Track Log ✈ N762NC ✈ 26-Aug-2013 ✈ KATL - KLIT

Flight Track Log - Related Links

Times and Time Zones

All times are in EDT time to prevent confusion due to time zone crossing. See the N762NC flight status page for this flight to view local times or setup timezone preferences in your user account.

Time Position Orientation Groundspeed Altitude Reporting Facility
EDT Latitude Longitude Course Direction KTS MPH feet Rate Location/Type
12:18PM 33.6500 -84.3500 268° West 214 246 2,800  Level Atlanta TRACON
12:19PM 33.6833 -84.2833 59° Northeast 233 268 5,700 2,280 Climbing Atlanta TRACON
12:21PM 33.6957 -84.9698 280° West  Level FlightAware Approximate
12:21PM 33.8022 -84.3014 353° North 278 320 9,200  Level Atlanta Center
12:22PM 33.7154 -85.1075 280° West  Level FlightAware Approximate
12:22PM 33.8083 -84.3864 275° West 281 323 10,400  Level Atlanta Center
12:23PM 33.7156 -85.2470 268° West  Level FlightAware Approximate
12:23PM 33.8142 -84.4989 274° West 315 362 11,500  Level Atlanta Center
12:24PM 33.7108 -85.3865 268° West  Level FlightAware Approximate
12:24PM 33.8219 -84.6339 274° West 356 410 13,000  Level Atlanta Center
12:25PM 33.7983 -84.7636 258° West 388 447 14,300 1,620 Climbing Atlanta Center
12:26PM 33.7725 -84.8986 257° West 400 460 16,300 1,860 Climbing Atlanta Center
12:27PM 33.7506 -85.0331 259° West 407 468 18,100 1,920 Climbing Atlanta Center
12:28PM 33.7306 -85.1653 260° West 412 474 20,200 1,980 Climbing Atlanta Center
12:29PM 33.7147 -85.2925 262° West 406 467 22,100 1,560 Climbing Atlanta Center
12:30PM 33.6989 -85.4222 262° West 406 467 23,400 1,200 Climbing Atlanta Center
12:31PM 33.6972 -85.5569 269° West 406 467 24,500 1,020 Climbing Atlanta Center
12:32PM 33.7103 -85.6794 277° West 406 467 25,500 1,080 Climbing Atlanta Center
12:33PM 33.7186 -85.8219 274° West 406 467 26,700 1,080 Climbing Atlanta Center
12:34PM 33.7292 -85.9622 275° West 406 467 27,700 600 Climbing Atlanta Center
12:35PM 33.7436 -86.1047 277° West 419 482 28,000 120 Climbing Atlanta Center
12:36PM 33.7494 -86.2522 273° West 432 497 28,000  Level Atlanta Center
12:37PM 33.7631 -86.4103 276° West 458 527 28,000  Level Atlanta Center
12:38PM 33.7789 -86.5606 277° West 464 534 28,000  Level Atlanta Center
12:39PM 33.7925 -86.7133 276° West 464 534 28,000  Level Atlanta Center
12:40PM 33.8078 -86.8689 277° West 464 534 28,000  Level Atlanta Center
12:43PM 33.8408 -87.2211 277° West 479 551 28,000  Level Memphis Center
12:44PM 33.8572 -87.3731 277° West 462 532 28,000  Level Memphis Center
12:45PM 33.8772 -87.5225 279° West 470 541 28,000  Level Memphis Center
12:46PM 33.8933 -87.6822 277° West 477 549 28,000  Level Memphis Center
12:47PM 33.9111 -87.8367 278° West 477 549 28,000  Level Memphis Center
12:48PM 33.9272 -88.0089 276° West 477 549 28,000  Level Memphis Center
12:49PM 33.9444 -88.1639 278° West 477 549 28,000  Level Memphis Center
12:50PM 33.9636 -88.3086 279° West 483 556 28,000  Level Memphis Center
12:51PM 33.9808 -88.4658 278° West 483 556 28,000  Level Memphis Center
12:52PM 34.0039 -88.6233 280° West 478 550 28,000  Level Memphis Center
12:53PM 34.0353 -88.7781 284° West 478 550 28,000  Level Memphis Center
12:54PM 34.0667 -88.9456 283° West 478 550 28,000  Level Memphis Center
12:55PM 34.0975 -89.1031 283° West 478 550 28,000  Level Memphis Center
12:56PM 34.1281 -89.2406 285° West 478 550 28,000  Level Memphis Center
12:57PM 34.1606 -89.3958 284° West 478 550 28,000  Level Memphis Center
12:58PM 34.1950 -89.5511 285° West 478 550 28,000  Level Memphis Center
12:59PM 34.2294 -89.7117 285° West 483 556 28,000  Level Memphis Center
01:00PM 34.2614 -89.8672 284° West 488 562 28,000 -60 Level Memphis Center
01:01PM 34.2975 -90.0428 284° West 488 562 27,900 -480 Descending Memphis Center
01:02PM 34.3292 -90.2011 284° West 488 562 27,100 -1,140 Descending Memphis Center
01:03PM 34.3667 -90.3572 286° West 488 562 25,700 -1,320 Descending Memphis Center
01:04PM 34.4022 -90.5108 286° West 483 556 24,500 -1,800 Descending Memphis Center
01:05PM 34.4353 -90.6569 285° West 471 542 22,100 -2,640 Descending Memphis Center
01:06PM 34.4308 -90.8003 268° West 440 506 19,300 -2,640 Descending Memphis Center
01:07PM 34.4197 -90.9464 265° West 440 506 16,900 -2,400 Descending Memphis Center
01:08PM 34.4086 -91.0669 264° West 428 493 14,600 -2,400 Descending Memphis Center
01:09PM 34.3911 -91.1953 261° West 407 468 12,200 -2,040 Descending Memphis Center
01:10PM 34.3797 -91.3186 264° West 384 442 10,600 -1,140 Descending Memphis Center
01:11PM 34.3767 -91.4367 268° West 364 419 10,000 -360 Descending Memphis Center
01:11PM 34.4053 -91.5253 291° West 338 389 10,000  Level Memphis Center
01:12PM 34.4356 -91.6289 290° West 340 391 10,000 -600 Level Memphis Center
01:13PM 34.4806 -91.7178 302° West 290 334 8,800 -1,320 Descending Memphis Center
01:14PM 34.5403 -91.7867 316° Northwest 283 326 7,400 -1,260 Descending Memphis Center
01:15PM 34.5939 -91.8431 319° Northwest 274 315 6,400 -1,500 Descending Memphis Center
01:16PM 34.6494 -91.9022 319° Northwest 262 302 4,600 -1,560 Descending Memphis Center
01:17PM 34.7028 -91.9636 317° Northwest 267 307 3,300 -900 Descending Memphis Center
01:18PM 34.7586 -92.0203 320° Northwest 256 295 2,900 -660 Descending Memphis Center
01:19PM 34.7764 -92.0942 286° West 249 287 2,100 -780 Descending Memphis Center
01:20PM 34.7753 -92.1675 269° West 187 215 1,500 -780 Descending Memphis Center
01:21PM 34.7497 -92.2022 228° Southwest 134 154 700 -900 Descending Memphis Center